sensor_id;sensor_type;location;lat;lon;timestamp;P1;durP1;ratioP1;P2;durP2;ratioP2
19213;SDS011;9741;51.020;5.304;2023-05-23T00:00:57;7.40;;;4.75;;
19213;SDS011;9741;51.020;5.304;2023-05-23T00:03:24;8.45;;;3.92;;
19213;SDS011;9741;51.020;5.304;2023-05-23T00:05:53;4.05;;;3.65;;
19213;SDS011;9741;51.020;5.304;2023-05-23T00:08:20;5.85;;;3.60;;
19213;SDS011;9741;51.020;5.304;2023-05-23T00:10:49;3.90;;;3.15;;
19213;SDS011;9741;51.020;5.304;2023-05-23T00:13:16;7.05;;;5.10;;
19213;SDS011;9741;51.020;5.304;2023-05-23T00:15:44;8.45;;;4.05;;
19213;SDS011;9741;51.020;5.304;2023-05-23T00:18:15;14.70;;;5.53;;
19213;SDS011;9741;51.020;5.304;2023-05-23T00:20:42;6.50;;;4.25;;
19213;SDS011;9741;51.020;5.304;2023-05-23T00:23:11;7.18;;;4.30;;
19213;SDS011;9741;51.020;5.304;2023-05-23T00:25:43;3.83;;;3.03;;
19213;SDS011;9741;51.020;5.304;2023-05-23T00:28:13;5.28;;;3.97;;
19213;SDS011;9741;51.020;5.304;2023-05-23T00:30:41;4.13;;;3.37;;
19213;SDS011;9741;51.020;5.304;2023-05-23T00:33:08;5.03;;;4.00;;
19213;SDS011;9741;51.020;5.304;2023-05-23T00:35:38;6.43;;;3.55;;
19213;SDS011;9741;51.020;5.304;2023-05-23T00:38:05;6.05;;;3.08;;
19213;SDS011;9741;51.020;5.304;2023-05-23T00:40:33;6.90;;;4.23;;
19213;SDS011;9741;51.020;5.304;2023-05-23T00:43:00;8.53;;;4.43;;
19213;SDS011;9741;51.020;5.304;2023-05-23T00:45:29;4.78;;;3.78;;
19213;SDS011;9741;51.020;5.304;2023-05-23T00:47:56;7.25;;;3.15;;
19213;SDS011;9741;51.020;5.304;2023-05-23T00:50:24;14.30;;;4.13;;
19213;SDS011;9741;51.020;5.304;2023-05-23T00:52:53;9.33;;;3.60;;
19213;SDS011;9741;51.020;5.304;2023-05-23T00:55:22;5.53;;;3.47;;
19213;SDS011;9741;51.020;5.304;2023-05-23T00:57:49;4.33;;;3.10;;
19213;SDS011;9741;51.020;5.304;2023-05-23T01:00:19;4.50;;;3.10;;
19213;SDS011;9741;51.020;5.304;2023-05-23T01:02:48;7.97;;;4.28;;
19213;SDS011;9741;51.020;5.304;2023-05-23T01:05:17;9.43;;;4.50;;
19213;SDS011;9741;51.020;5.304;2023-05-23T01:07:46;6.40;;;4.10;;
19213;SDS011;9741;51.020;5.304;2023-05-23T01:10:15;10.10;;;3.73;;
19213;SDS011;9741;51.020;5.304;2023-05-23T01:12:46;10.30;;;3.80;;
19213;SDS011;9741;51.020;5.304;2023-05-23T01:15:22;11.47;;;3.33;;
19213;SDS011;9741;51.020;5.304;2023-05-23T01:17:58;5.73;;;3.20;;
19213;SDS011;9741;51.020;5.304;2023-05-23T01:20:30;5.10;;;3.20;;
19213;SDS011;9741;51.020;5.304;2023-05-23T01:28:53;7.40;;;4.43;;
19213;SDS011;9741;51.020;5.304;2023-05-23T01:31:24;5.53;;;3.17;;
19213;SDS011;9741;51.020;5.304;2023-05-23T01:33:55;3.57;;;3.27;;
19213;SDS011;9741;51.020;5.304;2023-05-23T01:36:23;4.80;;;2.70;;
19213;SDS011;9741;51.020;5.304;2023-05-23T01:38:51;18.63;;;4.37;;
19213;SDS011;9741;51.020;5.304;2023-05-23T01:41:18;4.17;;;3.20;;
19213;SDS011;9741;51.020;5.304;2023-05-23T01:43:45;5.63;;;3.33;;
19213;SDS011;9741;51.020;5.304;2023-05-23T01:46:14;4.07;;;3.25;;
19213;SDS011;9741;51.020;5.304;2023-05-23T01:48:42;4.15;;;3.20;;
19213;SDS011;9741;51.020;5.304;2023-05-23T01:51:12;4.40;;;2.33;;
19213;SDS011;9741;51.020;5.304;2023-05-23T01:53:40;6.23;;;2.97;;
19213;SDS011;9741;51.020;5.304;2023-05-23T01:56:08;7.20;;;4.43;;
19213;SDS011;9741;51.020;5.304;2023-05-23T01:58:36;4.83;;;3.37;;
19213;SDS011;9741;51.020;5.304;2023-05-23T02:01:03;4.38;;;3.35;;
19213;SDS011;9741;51.020;5.304;2023-05-23T02:03:31;5.15;;;3.13;;
19213;SDS011;9741;51.020;5.304;2023-05-23T02:05:59;5.05;;;2.90;;
19213;SDS011;9741;51.020;5.304;2023-05-23T02:08:28;5.75;;;3.25;;
19213;SDS011;9741;51.020;5.304;2023-05-23T02:10:55;3.57;;;2.80;;
19213;SDS011;9741;51.020;5.304;2023-05-23T02:13:22;4.15;;;2.78;;
19213;SDS011;9741;51.020;5.304;2023-05-23T02:15:50;6.13;;;3.00;;
19213;SDS011;9741;51.020;5.304;2023-05-23T02:18:17;2.85;;;2.33;;
19213;SDS011;9741;51.020;5.304;2023-05-23T02:20:47;3.55;;;2.47;;
19213;SDS011;9741;51.020;5.304;2023-05-23T02:23:14;3.20;;;2.63;;
19213;SDS011;9741;51.020;5.304;2023-05-23T02:25:41;2.53;;;2.28;;
19213;SDS011;9741;51.020;5.304;2023-05-23T02:28:08;4.47;;;2.35;;
19213;SDS011;9741;51.020;5.304;2023-05-23T02:30:37;4.63;;;2.60;;
19213;SDS011;9741;51.020;5.304;2023-05-23T02:33:04;6.78;;;2.03;;
19213;SDS011;9741;51.020;5.304;2023-05-23T02:35:32;1.40;;;1.30;;
19213;SDS011;9741;51.020;5.304;2023-05-23T02:38:01;3.05;;;1.73;;
19213;SDS011;9741;51.020;5.304;2023-05-23T02:40:28;2.80;;;1.75;;
19213;SDS011;9741;51.020;5.304;2023-05-23T02:42:58;6.07;;;2.05;;
19213;SDS011;9741;51.020;5.304;2023-05-23T02:45:25;2.63;;;1.93;;
19213;SDS011;9741;51.020;5.304;2023-05-23T02:47:52;2.15;;;1.95;;
19213;SDS011;9741;51.020;5.304;2023-05-23T02:50:19;2.00;;;1.83;;
19213;SDS011;9741;51.020;5.304;2023-05-23T02:52:47;2.15;;;1.92;;
19213;SDS011;9741;51.020;5.304;2023-05-23T02:55:17;2.97;;;1.83;;
19213;SDS011;9741;51.020;5.304;2023-05-23T02:57:44;3.03;;;2.37;;
19213;SDS011;9741;51.020;5.304;2023-05-23T03:00:12;2.57;;;2.37;;
19213;SDS011;9741;51.020;5.304;2023-05-23T03:02:40;9.03;;;2.57;;
19213;SDS011;9741;51.020;5.304;2023-05-23T03:05:07;3.78;;;2.10;;
19213;SDS011;9741;51.020;5.304;2023-05-23T03:07:35;3.25;;;2.67;;
19213;SDS011;9741;51.020;5.304;2023-05-23T03:10:02;3.30;;;1.87;;
19213;SDS011;9741;51.020;5.304;2023-05-23T03:12:31;4.57;;;2.53;;
19213;SDS011;9741;51.020;5.304;2023-05-23T03:14:59;1.93;;;1.63;;
19213;SDS011;9741;51.020;5.304;2023-05-23T03:17:26;1.83;;;1.33;;
19213;SDS011;9741;51.020;5.304;2023-05-23T03:19:54;8.40;;;2.07;;
19213;SDS011;9741;51.020;5.304;2023-05-23T03:22:21;13.87;;;2.93;;
19213;SDS011;9741;51.020;5.304;2023-05-23T03:24:48;5.60;;;2.17;;
19213;SDS011;9741;51.020;5.304;2023-05-23T03:27:17;6.53;;;2.30;;
19213;SDS011;9741;51.020;5.304;2023-05-23T03:29:46;5.00;;;2.10;;
19213;SDS011;9741;51.020;5.304;2023-05-23T03:32:13;4.97;;;2.17;;
19213;SDS011;9741;51.020;5.304;2023-05-23T03:34:40;2.07;;;1.63;;
19213;SDS011;9741;51.020;5.304;2023-05-23T03:37:07;2.00;;;1.33;;
19213;SDS011;9741;51.020;5.304;2023-05-23T03:39:35;6.97;;;2.03;;
19213;SDS011;9741;51.020;5.304;2023-05-23T03:42:02;2.37;;;2.13;;
19213;SDS011;9741;51.020;5.304;2023-05-23T03:44:30;4.67;;;2.20;;
19213;SDS011;9741;51.020;5.304;2023-05-23T03:46:58;5.07;;;2.40;;
19213;SDS011;9741;51.020;5.304;2023-05-23T03:49:25;3.60;;;2.57;;
19213;SDS011;9741;51.020;5.304;2023-05-23T03:51:53;2.50;;;1.97;;
19213;SDS011;9741;51.020;5.304;2023-05-23T03:54:22;2.53;;;2.03;;
19213;SDS011;9741;51.020;5.304;2023-05-23T03:56:49;2.95;;;2.10;;
19213;SDS011;9741;51.020;5.304;2023-05-23T03:59:16;2.23;;;2.03;;
19213;SDS011;9741;51.020;5.304;2023-05-23T04:01:44;3.10;;;2.70;;
19213;SDS011;9741;51.020;5.304;2023-05-23T04:04:12;2.40;;;2.13;;
19213;SDS011;9741;51.020;5.304;2023-05-23T04:06:42;8.05;;;2.20;;
19213;SDS011;9741;51.020;5.304;2023-05-23T04:09:09;3.13;;;2.00;;
19213;SDS011;9741;51.020;5.304;2023-05-23T04:11:38;9.00;;;2.53;;
19213;SDS011;9741;51.020;5.304;2023-05-23T04:14:05;7.13;;;2.03;;
19213;SDS011;9741;51.020;5.304;2023-05-23T04:16:32;2.80;;;2.10;;
19213;SDS011;9741;51.020;5.304;2023-05-23T04:19:00;3.40;;;2.30;;
19213;SDS011;9741;51.020;5.304;2023-05-23T04:21:30;3.40;;;2.60;;
19213;SDS011;9741;51.020;5.304;2023-05-23T04:23:57;3.93;;;1.93;;
19213;SDS011;9741;51.020;5.304;2023-05-23T04:26:24;3.93;;;2.17;;
19213;SDS011;9741;51.020;5.304;2023-05-23T04:28:52;2.25;;;2.10;;
19213;SDS011;9741;51.020;5.304;2023-05-23T04:31:19;5.77;;;1.93;;
19213;SDS011;9741;51.020;5.304;2023-05-23T04:33:47;1.47;;;1.37;;
19213;SDS011;9741;51.020;5.304;2023-05-23T04:36:14;3.97;;;2.40;;
19213;SDS011;9741;51.020;5.304;2023-05-23T04:38:45;2.20;;;1.70;;
19213;SDS011;9741;51.020;5.304;2023-05-23T04:41:12;3.07;;;2.27;;
19213;SDS011;9741;51.020;5.304;2023-05-23T04:43:40;2.97;;;1.92;;
19213;SDS011;9741;51.020;5.304;2023-05-23T04:46:08;3.60;;;2.08;;
19213;SDS011;9741;51.020;5.304;2023-05-23T04:48:35;3.27;;;1.97;;
19213;SDS011;9741;51.020;5.304;2023-05-23T04:51:03;2.50;;;1.60;;
19213;SDS011;9741;51.020;5.304;2023-05-23T04:53:33;3.53;;;2.23;;
19213;SDS011;9741;51.020;5.304;2023-05-23T04:56:02;2.67;;;1.27;;
19213;SDS011;9741;51.020;5.304;2023-05-23T04:58:29;7.07;;;1.63;;
19213;SDS011;9741;51.020;5.304;2023-05-23T05:00:57;1.43;;;1.23;;
19213;SDS011;9741;51.020;5.304;2023-05-23T05:03:24;2.80;;;1.47;;
19213;SDS011;9741;51.020;5.304;2023-05-23T05:05:51;2.87;;;2.23;;
19213;SDS011;9741;51.020;5.304;2023-05-23T05:08:19;1.53;;;1.43;;
19213;SDS011;9741;51.020;5.304;2023-05-23T05:10:46;1.65;;;1.55;;
19213;SDS011;9741;51.020;5.304;2023-05-23T05:13:15;2.27;;;1.90;;
19213;SDS011;9741;51.020;5.304;2023-05-23T05:15:42;3.07;;;1.93;;
19213;SDS011;9741;51.020;5.304;2023-05-23T05:18:09;2.70;;;1.57;;
19213;SDS011;9741;51.020;5.304;2023-05-23T05:20:40;2.83;;;1.87;;
19213;SDS011;9741;51.020;5.304;2023-05-23T05:23:09;1.90;;;1.60;;
19213;SDS011;9741;51.020;5.304;2023-05-23T05:25:36;1.40;;;1.30;;
19213;SDS011;9741;51.020;5.304;2023-05-23T05:28:05;2.23;;;1.70;;
19213;SDS011;9741;51.020;5.304;2023-05-23T05:30:34;1.83;;;1.50;;
19213;SDS011;9741;51.020;5.304;2023-05-23T05:33:01;4.87;;;2.10;;
19213;SDS011;9741;51.020;5.304;2023-05-23T05:35:29;2.70;;;1.73;;
19213;SDS011;9741;51.020;5.304;2023-05-23T05:37:57;3.40;;;1.92;;
19213;SDS011;9741;51.020;5.304;2023-05-23T05:40:24;4.38;;;1.80;;
19213;SDS011;9741;51.020;5.304;2023-05-23T05:42:52;3.10;;;2.33;;
19213;SDS011;9741;51.020;5.304;2023-05-23T05:45:22;3.13;;;1.75;;
19213;SDS011;9741;51.020;5.304;2023-05-23T05:47:52;2.42;;;1.85;;
19213;SDS011;9741;51.020;5.304;2023-05-23T05:50:19;3.00;;;1.60;;
19213;SDS011;9741;51.020;5.304;2023-05-23T05:52:48;2.33;;;2.03;;
19213;SDS011;9741;51.020;5.304;2023-05-23T05:55:15;2.53;;;1.88;;
19213;SDS011;9741;51.020;5.304;2023-05-23T05:57:45;6.10;;;3.00;;
19213;SDS011;9741;51.020;5.304;2023-05-23T06:00:14;4.65;;;1.88;;
19213;SDS011;9741;51.020;5.304;2023-05-23T06:02:43;4.32;;;1.90;;
19213;SDS011;9741;51.020;5.304;2023-05-23T06:05:13;3.08;;;1.73;;
19213;SDS011;9741;51.020;5.304;2023-05-23T06:07:41;1.92;;;1.80;;
19213;SDS011;9741;51.020;5.304;2023-05-23T06:10:10;3.65;;;2.42;;
19213;SDS011;9741;51.020;5.304;2023-05-23T06:12:38;2.33;;;2.00;;
19213;SDS011;9741;51.020;5.304;2023-05-23T06:15:07;2.05;;;1.85;;
19213;SDS011;9741;51.020;5.304;2023-05-23T06:17:36;7.57;;;2.97;;
19213;SDS011;9741;51.020;5.304;2023-05-23T06:20:04;3.30;;;2.45;;
19213;SDS011;9741;51.020;5.304;2023-05-23T06:22:34;3.60;;;2.38;;
19213;SDS011;9741;51.020;5.304;2023-05-23T06:25:01;5.22;;;3.17;;
19213;SDS011;9741;51.020;5.304;2023-05-23T06:27:32;4.57;;;2.60;;
19213;SDS011;9741;51.020;5.304;2023-05-23T06:30:01;6.40;;;2.85;;
19213;SDS011;9741;51.020;5.304;2023-05-23T06:32:29;2.40;;;1.98;;
19213;SDS011;9741;51.020;5.304;2023-05-23T06:34:57;2.65;;;2.25;;
19213;SDS011;9741;51.020;5.304;2023-05-23T06:37:24;9.07;;;3.63;;
19213;SDS011;9741;51.020;5.304;2023-05-23T06:39:54;3.50;;;2.28;;
19213;SDS011;9741;51.020;5.304;2023-05-23T06:42:21;2.67;;;2.37;;
19213;SDS011;9741;51.020;5.304;2023-05-23T06:44:50;7.55;;;2.92;;
19213;SDS011;9741;51.020;5.304;2023-05-23T06:47:17;3.88;;;2.30;;
19213;SDS011;9741;51.020;5.304;2023-05-23T06:49:45;3.60;;;2.78;;
19213;SDS011;9741;51.020;5.304;2023-05-23T06:52:13;8.52;;;3.47;;
19213;SDS011;9741;51.020;5.304;2023-05-23T06:54:42;6.25;;;2.28;;
19213;SDS011;9741;51.020;5.304;2023-05-23T06:57:13;5.70;;;2.87;;
19213;SDS011;9741;51.020;5.304;2023-05-23T06:59:40;2.00;;;1.70;;
19213;SDS011;9741;51.020;5.304;2023-05-23T07:02:08;1.55;;;1.42;;
19213;SDS011;9741;51.020;5.304;2023-05-23T07:04:38;3.70;;;2.80;;
19213;SDS011;9741;51.020;5.304;2023-05-23T07:07:06;2.65;;;2.42;;
19213;SDS011;9741;51.020;5.304;2023-05-23T07:09:34;4.05;;;2.28;;
19213;SDS011;9741;51.020;5.304;2023-05-23T07:12:04;4.63;;;2.70;;
19213;SDS011;9741;51.020;5.304;2023-05-23T07:14:38;15.07;;;3.65;;
19213;SDS011;9741;51.020;5.304;2023-05-23T07:17:13;7.87;;;1.73;;
19213;SDS011;9741;51.020;5.304;2023-05-23T07:19:42;3.45;;;2.13;;
19213;SDS011;9741;51.020;5.304;2023-05-23T07:22:10;5.95;;;3.20;;
19213;SDS011;9741;51.020;5.304;2023-05-23T07:24:38;2.15;;;1.88;;
19213;SDS011;9741;51.020;5.304;2023-05-23T07:27:06;8.17;;;2.13;;
19213;SDS011;9741;51.020;5.304;2023-05-23T07:29:34;0.67;;;0.67;;
19213;SDS011;9741;51.020;5.304;2023-05-23T07:32:04;4.33;;;1.87;;
19213;SDS011;9741;51.020;5.304;2023-05-23T07:34:35;1.93;;;1.73;;
19213;SDS011;9741;51.020;5.304;2023-05-23T07:37:03;2.77;;;1.77;;
19213;SDS011;9741;51.020;5.304;2023-05-23T07:39:31;1.70;;;1.20;;
19213;SDS011;9741;51.020;5.304;2023-05-23T07:41:59;1.50;;;1.40;;
19213;SDS011;9741;51.020;5.304;2023-05-23T07:44:31;4.57;;;1.40;;
19213;SDS011;9741;51.020;5.304;2023-05-23T07:46:59;4.43;;;1.60;;
19213;SDS011;9741;51.020;5.304;2023-05-23T07:49:28;3.63;;;1.50;;
19213;SDS011;9741;51.020;5.304;2023-05-23T07:51:55;1.80;;;1.47;;
19213;SDS011;9741;51.020;5.304;2023-05-23T07:54:23;1.52;;;1.40;;
19213;SDS011;9741;51.020;5.304;2023-05-23T07:56:51;0.83;;;0.83;;
19213;SDS011;9741;51.020;5.304;2023-05-23T07:59:19;1.52;;;1.42;;
19213;SDS011;9741;51.020;5.304;2023-05-23T08:01:49;1.35;;;1.20;;
19213;SDS011;9741;51.020;5.304;2023-05-23T08:04:17;2.95;;;1.02;;
19213;SDS011;9741;51.020;5.304;2023-05-23T08:06:49;1.93;;;1.40;;
19213;SDS011;9741;51.020;5.304;2023-05-23T08:09:18;7.03;;;1.43;;
19213;SDS011;9741;51.020;5.304;2023-05-23T08:11:45;1.42;;;1.13;;
19213;SDS011;9741;51.020;5.304;2023-05-23T08:14:13;0.88;;;0.88;;
19213;SDS011;9741;51.020;5.304;2023-05-23T08:16:41;1.77;;;1.10;;
19213;SDS011;9741;51.020;5.304;2023-05-23T08:19:09;1.90;;;1.45;;
19213;SDS011;9741;51.020;5.304;2023-05-23T08:21:36;2.87;;;1.33;;
19213;SDS011;9741;51.020;5.304;2023-05-23T08:24:06;2.57;;;1.50;;
19213;SDS011;9741;51.020;5.304;2023-05-23T08:26:33;2.65;;;1.08;;
19213;SDS011;9741;51.020;5.304;2023-05-23T08:29:01;0.90;;;0.90;;
19213;SDS011;9741;51.020;5.304;2023-05-23T08:31:29;1.30;;;0.93;;
19213;SDS011;9741;51.020;5.304;2023-05-23T08:33:57;1.42;;;0.73;;
19213;SDS011;9741;51.020;5.304;2023-05-23T08:36:25;2.13;;;1.33;;
19213;SDS011;9741;51.020;5.304;2023-05-23T08:38:52;3.03;;;1.23;;
19213;SDS011;9741;51.020;5.304;2023-05-23T08:41:22;1.70;;;1.60;;
19213;SDS011;9741;51.020;5.304;2023-05-23T08:43:50;1.70;;;1.10;;
19213;SDS011;9741;51.020;5.304;2023-05-23T08:46:18;1.10;;;1.00;;
19213;SDS011;9741;51.020;5.304;2023-05-23T08:48:48;3.53;;;1.43;;
19213;SDS011;9741;51.020;5.304;2023-05-23T08:51:20;1.45;;;1.35;;
19213;SDS011;9741;51.020;5.304;2023-05-23T08:53:50;1.63;;;1.40;;
19213;SDS011;9741;51.020;5.304;2023-05-23T08:56:18;2.58;;;1.17;;
19213;SDS011;9741;51.020;5.304;2023-05-23T08:58:48;15.73;;;1.30;;
19213;SDS011;9741;51.020;5.304;2023-05-23T09:01:17;5.80;;;1.77;;
19213;SDS011;9741;51.020;5.304;2023-05-23T09:03:47;2.03;;;0.90;;
19213;SDS011;9741;51.020;5.304;2023-05-23T09:06:16;2.33;;;1.65;;
19213;SDS011;9741;51.020;5.304;2023-05-23T09:08:46;2.22;;;1.15;;
19213;SDS011;9741;51.020;5.304;2023-05-23T09:11:13;2.20;;;0.75;;
19213;SDS011;9741;51.020;5.304;2023-05-23T09:13:41;3.00;;;1.25;;
19213;SDS011;9741;51.020;5.304;2023-05-23T09:16:14;0.95;;;0.77;;
19213;SDS011;9741;51.020;5.304;2023-05-23T09:18:43;1.50;;;1.10;;
19213;SDS011;9741;51.020;5.304;2023-05-23T09:21:11;1.65;;;0.95;;
19213;SDS011;9741;51.020;5.304;2023-05-23T09:23:40;4.03;;;1.00;;
19213;SDS011;9741;51.020;5.304;2023-05-23T09:26:08;3.80;;;1.10;;
19213;SDS011;9741;51.020;5.304;2023-05-23T09:28:37;1.67;;;1.40;;
19213;SDS011;9741;51.020;5.304;2023-05-23T09:31:08;2.95;;;1.13;;
19213;SDS011;9741;51.020;5.304;2023-05-23T09:33:43;1.13;;;1.02;;
19213;SDS011;9741;51.020;5.304;2023-05-23T09:36:12;2.00;;;1.30;;
19213;SDS011;9741;51.020;5.304;2023-05-23T09:38:43;1.58;;;0.85;;
19213;SDS011;9741;51.020;5.304;2023-05-23T09:41:12;2.55;;;1.10;;
19213;SDS011;9741;51.020;5.304;2023-05-23T09:43:48;2.70;;;1.50;;
19213;SDS011;9741;51.020;5.304;2023-05-23T09:46:17;1.48;;;1.38;;
19213;SDS011;9741;51.020;5.304;2023-05-23T09:48:48;1.38;;;1.27;;
19213;SDS011;9741;51.020;5.304;2023-05-23T09:51:17;2.75;;;1.52;;
19213;SDS011;9741;51.020;5.304;2023-05-23T09:53:46;3.33;;;1.05;;
19213;SDS011;9741;51.020;5.304;2023-05-23T09:56:14;2.15;;;1.58;;
19213;SDS011;9741;51.020;5.304;2023-05-23T09:58:45;2.33;;;1.13;;
19213;SDS011;9741;51.020;5.304;2023-05-23T10:01:21;1.75;;;1.15;;
19213;SDS011;9741;51.020;5.304;2023-05-23T10:03:52;2.50;;;1.38;;
19213;SDS011;9741;51.020;5.304;2023-05-23T10:06:22;1.98;;;1.23;;
19213;SDS011;9741;51.020;5.304;2023-05-23T10:08:52;1.55;;;1.00;;
19213;SDS011;9741;51.020;5.304;2023-05-23T10:14:28;1.33;;;0.77;;
19213;SDS011;9741;51.020;5.304;2023-05-23T10:17:02;4.60;;;0.77;;
19213;SDS011;9741;51.020;5.304;2023-05-23T10:19:37;1.23;;;0.85;;
19213;SDS011;9741;51.020;5.304;2023-05-23T10:22:09;1.48;;;0.88;;
19213;SDS011;9741;51.020;5.304;2023-05-23T10:24:46;0.98;;;0.75;;
19213;SDS011;9741;51.020;5.304;2023-05-23T10:27:16;3.05;;;0.90;;
19213;SDS011;9741;51.020;5.304;2023-05-23T10:29:45;0.93;;;0.80;;
19213;SDS011;9741;51.020;5.304;2023-05-23T10:32:17;2.90;;;1.30;;
19213;SDS011;9741;51.020;5.304;2023-05-23T10:34:50;3.28;;;1.70;;
19213;SDS011;9741;51.020;5.304;2023-05-23T10:37:25;1.85;;;0.95;;
19213;SDS011;9741;51.020;5.304;2023-05-23T10:39:58;1.33;;;0.60;;
19213;SDS011;9741;51.020;5.304;2023-05-23T10:42:37;2.45;;;1.10;;
19213;SDS011;9741;51.020;5.304;2023-05-23T10:45:14;1.00;;;0.90;;
19213;SDS011;9741;51.020;5.304;2023-05-23T10:47:45;4.25;;;0.95;;
19213;SDS011;9741;51.020;5.304;2023-05-23T10:50:15;1.75;;;1.30;;
19213;SDS011;9741;51.020;5.304;2023-05-23T10:52:59;1.88;;;1.35;;
19213;SDS011;9741;51.020;5.304;2023-05-23T10:55:30;0.93;;;0.73;;
19213;SDS011;9741;51.020;5.304;2023-05-23T10:58:08;1.17;;;0.75;;
19213;SDS011;9741;51.020;5.304;2023-05-23T11:00:36;1.25;;;1.00;;
19213;SDS011;9741;51.020;5.304;2023-05-23T11:03:04;3.88;;;1.27;;
19213;SDS011;9741;51.020;5.304;2023-05-23T11:05:34;1.25;;;0.93;;
19213;SDS011;9741;51.020;5.304;2023-05-23T11:08:08;0.95;;;0.65;;
19213;SDS011;9741;51.020;5.304;2023-05-23T11:10:58;1.38;;;1.00;;
19213;SDS011;9741;51.020;5.304;2023-05-23T11:16:29;6.00;;;0.50;;
19213;SDS011;9741;51.020;5.304;2023-05-23T11:21:51;2.20;;;1.00;;
19213;SDS011;9741;51.020;5.304;2023-05-23T11:24:19;0.82;;;0.63;;
19213;SDS011;9741;51.020;5.304;2023-05-23T11:26:54;0.68;;;0.38;;
19213;SDS011;9741;51.020;5.304;2023-05-23T11:29:25;1.85;;;0.75;;
19213;SDS011;9741;51.020;5.304;2023-05-23T11:31:54;2.05;;;1.08;;
19213;SDS011;9741;51.020;5.304;2023-05-23T11:34:22;3.40;;;1.67;;
19213;SDS011;9741;51.020;5.304;2023-05-23T11:36:53;1.80;;;0.90;;
19213;SDS011;9741;51.020;5.304;2023-05-23T11:39:21;2.42;;;1.00;;
19213;SDS011;9741;51.020;5.304;2023-05-23T11:41:58;3.28;;;0.90;;
19213;SDS011;9741;51.020;5.304;2023-05-23T11:44:25;7.43;;;1.20;;
19213;SDS011;9741;51.020;5.304;2023-05-23T11:46:59;7.18;;;1.00;;
19213;SDS011;9741;51.020;5.304;2023-05-23T11:49:28;3.88;;;0.55;;
19213;SDS011;9741;51.020;5.304;2023-05-23T11:52:00;0.32;;;0.32;;
19213;SDS011;9741;51.020;5.304;2023-05-23T11:54:29;5.20;;;1.23;;
19213;SDS011;9741;51.020;5.304;2023-05-23T11:56:57;1.33;;;0.75;;
19213;SDS011;9741;51.020;5.304;2023-05-23T11:59:25;8.23;;;0.75;;
19213;SDS011;9741;51.020;5.304;2023-05-23T12:01:53;0.82;;;0.50;;
19213;SDS011;9741;51.020;5.304;2023-05-23T12:04:24;1.98;;;0.80;;
19213;SDS011;9741;51.020;5.304;2023-05-23T12:06:52;5.38;;;0.73;;
19213;SDS011;9741;51.020;5.304;2023-05-23T12:09:21;1.55;;;0.98;;
19213;SDS011;9741;51.020;5.304;2023-05-23T12:11:49;1.83;;;1.08;;
19213;SDS011;9741;51.020;5.304;2023-05-23T12:14:17;4.55;;;1.52;;
19213;SDS011;9741;51.020;5.304;2023-05-23T12:16:45;2.58;;;1.00;;
19213;SDS011;9741;51.020;5.304;2023-05-23T12:19:13;3.25;;;1.20;;
19213;SDS011;9741;51.020;5.304;2023-05-23T12:21:42;1.75;;;0.77;;
19213;SDS011;9741;51.020;5.304;2023-05-23T12:24:14;6.13;;;1.13;;
19213;SDS011;9741;51.020;5.304;2023-05-23T12:26:50;0.98;;;0.65;;
19213;SDS011;9741;51.020;5.304;2023-05-23T12:29:19;0.55;;;0.55;;
19213;SDS011;9741;51.020;5.304;2023-05-23T12:31:48;0.80;;;0.65;;
19213;SDS011;9741;51.020;5.304;2023-05-23T12:34:16;10.88;;;1.45;;
19213;SDS011;9741;51.020;5.304;2023-05-23T12:36:45;1.17;;;0.77;;
19213;SDS011;9741;51.020;5.304;2023-05-23T12:39:13;3.38;;;1.30;;
19213;SDS011;9741;51.020;5.304;2023-05-23T12:41:43;4.00;;;0.88;;
19213;SDS011;9741;51.020;5.304;2023-05-23T12:44:13;1.20;;;1.08;;
19213;SDS011;9741;51.020;5.304;2023-05-23T12:46:41;0.30;;;0.30;;
19213;SDS011;9741;51.020;5.304;2023-05-23T12:49:09;2.05;;;1.27;;
19213;SDS011;9741;51.020;5.304;2023-05-23T12:51:37;1.08;;;0.88;;
19213;SDS011;9741;51.020;5.304;2023-05-23T12:54:04;7.65;;;1.23;;
19213;SDS011;9741;51.020;5.304;2023-05-23T12:56:31;6.80;;;0.80;;
19213;SDS011;9741;51.020;5.304;2023-05-23T12:58:58;7.13;;;0.90;;
19213;SDS011;9741;51.020;5.304;2023-05-23T13:01:28;1.13;;;0.80;;
19213;SDS011;9741;51.020;5.304;2023-05-23T13:03:57;0.63;;;0.40;;
19213;SDS011;9741;51.020;5.304;2023-05-23T13:06:25;1.35;;;1.00;;
19213;SDS011;9741;51.020;5.304;2023-05-23T13:08:52;3.88;;;0.80;;
19213;SDS011;9741;51.020;5.304;2023-05-23T13:11:19;0.82;;;0.82;;
19213;SDS011;9741;51.020;5.304;2023-05-23T13:13:48;0.73;;;0.55;;
19213;SDS011;9741;51.020;5.304;2023-05-23T13:16:16;2.50;;;0.95;;
19213;SDS011;9741;51.020;5.304;2023-05-23T13:18:45;0.80;;;0.80;;
19213;SDS011;9741;51.020;5.304;2023-05-23T13:21:13;5.88;;;0.98;;
19213;SDS011;9741;51.020;5.304;2023-05-23T13:23:41;1.25;;;0.70;;
19213;SDS011;9741;51.020;5.304;2023-05-23T13:26:08;0.90;;;0.73;;
19213;SDS011;9741;51.020;5.304;2023-05-23T13:28:36;0.95;;;0.80;;
19213;SDS011;9741;51.020;5.304;2023-05-23T13:31:04;6.10;;;0.70;;
19213;SDS011;9741;51.020;5.304;2023-05-23T13:33:32;2.75;;;1.00;;
19213;SDS011;9741;51.020;5.304;2023-05-23T13:36:01;0.50;;;0.45;;
19213;SDS011;9741;51.020;5.304;2023-05-23T13:38:29;1.50;;;0.85;;
19213;SDS011;9741;51.020;5.304;2023-05-23T13:40:56;0.40;;;0.40;;
19213;SDS011;9741;51.020;5.304;2023-05-23T13:43:24;1.05;;;0.70;;
19213;SDS011;9741;51.020;5.304;2023-05-23T13:45:51;3.45;;;1.08;;
19213;SDS011;9741;51.020;5.304;2023-05-23T13:48:18;2.33;;;1.52;;
19213;SDS011;9741;51.020;5.304;2023-05-23T13:50:45;3.67;;;0.95;;
19213;SDS011;9741;51.020;5.304;2023-05-23T13:53:14;0.60;;;0.60;;
19213;SDS011;9741;51.020;5.304;2023-05-23T13:55:41;1.45;;;0.90;;
19213;SDS011;9741;51.020;5.304;2023-05-23T13:58:09;0.65;;;0.63;;
19213;SDS011;9741;51.020;5.304;2023-05-23T14:00:46;1.98;;;0.57;;
19213;SDS011;9741;51.020;5.304;2023-05-23T14:03:14;0.85;;;0.50;;
19213;SDS011;9741;51.020;5.304;2023-05-23T14:05:44;0.40;;;0.40;;
19213;SDS011;9741;51.020;5.304;2023-05-23T14:08:13;1.35;;;0.57;;
19213;SDS011;9741;51.020;5.304;2023-05-23T14:10:41;0.68;;;0.65;;
19213;SDS011;9741;51.020;5.304;2023-05-23T14:13:09;0.30;;;0.30;;
19213;SDS011;9741;51.020;5.304;2023-05-23T14:15:36;1.67;;;0.60;;
19213;SDS011;9741;51.020;5.304;2023-05-23T14:18:06;1.25;;;0.75;;
19213;SDS011;9741;51.020;5.304;2023-05-23T14:20:33;0.85;;;0.73;;
19213;SDS011;9741;51.020;5.304;2023-05-23T14:23:01;0.57;;;0.57;;
19213;SDS011;9741;51.020;5.304;2023-05-23T14:25:29;0.13;;;0.13;;
19213;SDS011;9741;51.020;5.304;2023-05-23T14:27:56;0.70;;;0.60;;
19213;SDS011;9741;51.020;5.304;2023-05-23T14:30:25;0.43;;;0.43;;
19213;SDS011;9741;51.020;5.304;2023-05-23T14:32:52;1.13;;;0.63;;
19213;SDS011;9741;51.020;5.304;2023-05-23T14:35:20;0.73;;;0.68;;
19213;SDS011;9741;51.020;5.304;2023-05-23T14:37:51;1.35;;;0.57;;
19213;SDS011;9741;51.020;5.304;2023-05-23T14:40:19;3.35;;;0.50;;
19213;SDS011;9741;51.020;5.304;2023-05-23T14:42:48;0.68;;;0.50;;
19213;SDS011;9741;51.020;5.304;2023-05-23T14:45:18;0.85;;;0.55;;
19213;SDS011;9741;51.020;5.304;2023-05-23T14:47:45;10.45;;;1.13;;
19213;SDS011;9741;51.020;5.304;2023-05-23T14:50:16;1.00;;;0.75;;
19213;SDS011;9741;51.020;5.304;2023-05-23T14:52:44;0.85;;;0.40;;
19213;SDS011;9741;51.020;5.304;2023-05-23T14:55:13;7.40;;;1.15;;
19213;SDS011;9741;51.020;5.304;2023-05-23T14:57:40;5.53;;;1.05;;
19213;SDS011;9741;51.020;5.304;2023-05-23T15:00:14;12.88;;;0.80;;
19213;SDS011;9741;51.020;5.304;2023-05-23T15:02:43;1.98;;;0.55;;
19213;SDS011;9741;51.020;5.304;2023-05-23T15:05:10;3.78;;;1.00;;
19213;SDS011;9741;51.020;5.304;2023-05-23T15:07:40;1.00;;;0.60;;
19213;SDS011;9741;51.020;5.304;2023-05-23T15:10:08;1.55;;;0.55;;
19213;SDS011;9741;51.020;5.304;2023-05-23T15:12:36;1.70;;;0.82;;
19213;SDS011;9741;51.020;5.304;2023-05-23T15:15:03;0.45;;;0.28;;
19213;SDS011;9741;51.020;5.304;2023-05-23T15:17:32;1.65;;;0.50;;
19213;SDS011;9741;51.020;5.304;2023-05-23T15:20:00;3.70;;;0.75;;
19213;SDS011;9741;51.020;5.304;2023-05-23T15:22:27;0.50;;;0.50;;
19213;SDS011;9741;51.020;5.304;2023-05-23T15:24:56;2.28;;;0.63;;